Time;durP1;ratioP1;P1;durP2;ratioP2;P2;SDS_P1;SDS_P2;PMS_P1;PMS_P2;Temp;Humidity;BMP_temperature;BMP_pressure;BME280_temperature;BME280_humidity;BME280_pressure;Samples;Min_cycle;Max_cycle;Signal;HPM_P1;HPM_P2
2023/03/08 00:00:59;;;;;;;16.30;8.27;;;4.90;71.90;;;;;;4995457;28;20052;-76
2023/03/08 00:03:24;;;;;;;12.60;7.05;;;4.90;71.60;;;;;;4994422;28;20065;-77
2023/03/08 00:05:50;;;;;;;10.75;6.43;;;4.80;71.60;;;;;;4993986;28;20034;-77
2023/03/08 00:08:17;;;;;;;14.65;7.78;;;4.80;71.70;;;;;;5008021;28;20036;-77
2023/03/08 00:10:43;;;;;;;14.48;7.35;;;4.80;71.40;;;;;;4996242;28;20089;-77
2023/03/08 00:13:08;;;;;;;13.38;6.35;;;4.80;71.50;;;;;;4992915;28;20041;-77
2023/03/08 00:15:36;;;;;;;14.25;7.88;;;4.80;71.70;;;;;;4994348;28;20387;-76
2023/03/08 00:18:03;;;;;;;10.77;6.65;;;4.70;71.60;;;;;;4994141;28;20618;-76
2023/03/08 00:20:28;;;;;;;12.13;6.65;;;4.70;71.70;;;;;;4994330;28;20035;-76
2023/03/08 00:22:54;;;;;;;10.48;6.45;;;4.60;71.90;;;;;;4994081;28;20380;-76
2023/03/08 00:25:20;;;;;;;11.60;6.32;;;4.50;72.10;;;;;;4994412;28;20089;-77
2023/03/08 00:27:45;;;;;;;16.52;8.65;;;4.40;72.30;;;;;;4994102;28;20496;-78
2023/03/08 00:30:11;;;;;;;15.07;7.10;;;4.30;72.40;;;;;;4994501;28;20109;-78
2023/03/08 00:32:37;;;;;;;12.48;6.53;;;4.30;72.70;;;;;;4993666;28;20500;-75
2023/03/08 00:35:03;;;;;;;11.38;6.55;;;4.20;72.90;;;;;;4994404;28;20200;-77
2023/03/08 00:37:29;;;;;;;10.50;5.38;;;4.10;73.10;;;;;;5001568;28;20037;-77
2023/03/08 00:39:54;;;;;;;15.65;7.18;;;4.10;73.20;;;;;;5004332;28;20026;-76
2023/03/08 00:42:21;;;;;;;15.82;7.13;;;4.00;73.20;;;;;;5014178;28;20029;-78
2023/03/08 00:44:47;;;;;;;11.02;6.45;;;4.00;73.40;;;;;;5014214;28;20030;-76
2023/03/08 00:47:13;;;;;;;12.65;6.10;;;4.00;73.40;;;;;;5014913;28;20060;-77
2023/03/08 00:49:39;;;;;;;14.65;7.45;;;3.90;73.50;;;;;;5014369;28;20048;-76
2023/03/08 00:52:05;;;;;;;10.48;5.93;;;3.90;73.70;;;;;;5013941;28;20022;-77
2023/03/08 00:54:30;;;;;;;9.90;5.75;;;3.80;73.70;;;;;;5000525;28;20387;-77
2023/03/08 00:56:56;;;;;;;8.25;4.50;;;3.80;73.80;;;;;;4994111;28;20054;-76
2023/03/08 00:59:22;;;;;;;11.27;5.53;;;3.80;73.90;;;;;;4994290;28;20100;-77
2023/03/08 01:01:47;;;;;;;8.88;5.07;;;3.80;74.00;;;;;;4995695;28;20034;-75
2023/03/08 01:04:13;;;;;;;7.72;5.00;;;3.80;74.00;;;;;;4998371;28;20049;-76
2023/03/08 01:06:42;;;;;;;9.25;5.00;;;3.80;74.00;;;;;;5002472;28;20044;-77
2023/03/08 01:09:08;;;;;;;9.18;4.03;;;3.80;74.00;;;;;;5008780;28;20054;-76
2023/03/08 01:11:35;;;;;;;9.18;5.07;;;3.80;73.90;;;;;;5017573;28;20030;-75
2023/03/08 01:14:02;;;;;;;7.22;3.65;;;3.90;73.80;;;;;;5002096;28;20027;-76
2023/03/08 01:16:31;;;;;;;11.07;5.07;;;3.90;73.80;;;;;;4997698;28;20029;-75
2023/03/08 01:18:58;;;;;;;10.75;5.65;;;3.90;73.70;;;;;;5014221;28;20414;-76
2023/03/08 01:21:25;;;;;;;10.73;5.45;;;3.90;73.60;;;;;;4996116;28;20029;-76
2023/03/08 01:23:51;;;;;;;6.72;3.97;;;3.80;73.50;;;;;;4996004;28;20041;-76
2023/03/08 01:26:19;;;;;;;8.15;4.15;;;3.80;73.60;;;;;;4995825;28;20507;-77
2023/03/08 01:28:45;;;;;;;6.85;4.07;;;3.70;73.70;;;;;;5002655;28;20034;-76
2023/03/08 01:31:14;;;;;;;6.82;4.03;;;3.70;73.90;;;;;;4996195;28;20026;-76
2023/03/08 01:33:41;;;;;;;10.70;5.22;;;3.60;74.10;;;;;;5005586;28;20034;-77
2023/03/08 01:36:08;;;;;;;10.93;4.50;;;3.60;74.10;;;;;;4972527;28;20027;-76
2023/03/08 01:38:35;;;;;;;11.27;4.82;;;3.50;74.80;;;;;;5001511;28;20023;-76
2023/03/08 01:41:03;;;;;;;8.55;4.47;;;3.50;74.30;;;;;;5013109;28;20486;-77
2023/03/08 01:43:31;;;;;;;10.52;5.10;;;3.50;74.40;;;;;;5012605;28;20109;-77
2023/03/08 01:46:09;;;;;;;8.77;4.72;;;3.50;74.50;;;;;;5012704;28;20090;-78
2023/03/08 01:49:08;;;;;;;8.52;4.75;;;3.40;74.60;;;;;;5007593;28;20403;-77
2023/03/08 01:51:37;;;;;;;9.25;4.88;;;3.40;74.70;;;;;;4993095;28;20018;-78
2023/03/08 01:54:11;;;;;;;8.73;5.13;;;3.40;74.80;;;;;;4992732;28;20034;-76
2023/03/08 01:56:39;;;;;;;11.77;5.93;;;3.40;74.90;;;;;;4992838;28;20037;-76
2023/03/08 01:59:06;;;;;;;8.82;4.57;;;3.40;75.10;;;;;;4993194;28;20027;-76
2023/03/08 02:01:33;;;;;;;9.32;4.80;;;3.30;75.10;;;;;;4991898;28;20053;-77
2023/03/08 02:04:00;;;;;;;11.07;5.07;;;3.30;75.30;;;;;;4992401;28;20101;-77
2023/03/08 02:06:27;;;;;;;9.20;5.15;;;3.30;75.60;;;;;;4992761;28;20104;-77
2023/03/08 02:08:52;;;;;;;6.50;4.35;;;3.20;75.70;;;;;;5009018;28;20030;-77
2023/03/08 02:11:19;;;;;;;8.43;4.28;;;3.20;75.90;;;;;;5012810;28;20490;-78
2023/03/08 02:13:46;;;;;;;9.25;4.63;;;3.10;76.10;;;;;;5012626;28;20089;-77
2023/03/08 02:16:13;;;;;;;10.45;5.10;;;3.10;76.30;;;;;;5013083;28;20029;-77
2023/03/08 02:19:15;;;;;;;10.05;4.65;;;3.10;76.50;;;;;;5014293;28;20076;-77
2023/03/08 02:21:41;;;;;;;8.60;4.43;;;3.10;76.60;;;;;;5000962;28;20085;-77
2023/03/08 02:24:18;;;;;;;8.93;4.60;;;3.10;76.70;;;;;;4992823;28;20273;-77
2023/03/08 02:26:44;;;;;;;9.65;4.88;;;3.00;76.90;;;;;;4992758;28;20089;-77
2023/03/08 02:29:10;;;;;;;9.63;4.90;;;3.00;77.10;;;;;;4992779;28;20034;-77
2023/03/08 02:31:36;;;;;;;9.88;5.40;;;3.00;77.20;;;;;;5008228;28;20026;-77
2023/03/08 02:34:01;;;;;;;7.75;4.25;;;3.00;77.40;;;;;;4995465;28;20022;-76
2023/03/08 02:36:27;;;;;;;8.35;4.40;;;3.00;77.50;;;;;;4996810;28;20022;-77
2023/03/08 02:38:53;;;;;;;8.63;4.45;;;3.00;77.70;;;;;;5007520;28;20038;-77
2023/03/08 02:41:19;;;;;;;11.18;5.00;;;2.90;77.80;;;;;;4996589;28;20400;-78
2023/03/08 02:43:45;;;;;;;7.65;4.68;;;2.90;77.90;;;;;;4996032;28;20030;-77
2023/03/08 02:46:13;;;;;;;10.35;4.85;;;2.90;78.00;;;;;;4996090;28;20030;-76
2023/03/08 02:48:39;;;;;;;8.20;4.65;;;2.90;78.20;;;;;;4997443;28;20030;-77
2023/03/08 02:51:05;;;;;;;10.57;5.13;;;2.90;78.30;;;;;;4996795;28;20384;-76
2023/03/08 02:53:31;;;;;;;8.68;4.18;;;2.90;78.40;;;;;;4996859;28;20105;-77
2023/03/08 02:55:56;;;;;;;9.77;5.60;;;2.90;78.40;;;;;;4996440;28;20034;-76
2023/03/08 02:58:22;;;;;;;8.93;4.60;;;2.80;78.50;;;;;;4995817;28;20036;-76
2023/03/08 03:00:48;;;;;;;12.25;5.55;;;2.80;78.50;;;;;;4996136;28;20038;-76
2023/03/08 03:03:13;;;;;;;9.35;4.50;;;2.90;78.70;;;;;;4996565;28;20034;-77
2023/03/08 03:05:41;;;;;;;9.40;4.63;;;2.80;78.70;;;;;;4995967;28;20029;-77
2023/03/08 03:08:08;;;;;;;7.80;4.40;;;2.80;78.80;;;;;;5008218;28;20022;-77
2023/03/08 03:10:37;;;;;;;8.82;4.45;;;2.80;78.90;;;;;;4999576;28;20018;-76
2023/03/08 03:13:04;;;;;;;8.07;4.50;;;2.80;79.10;;;;;;4996495;28;20714;-76
2023/03/08 03:15:31;;;;;;;8.65;4.38;;;2.70;79.10;;;;;;4995788;28;20030;-77
2023/03/08 03:17:57;;;;;;;8.73;4.38;;;2.70;79.30;;;;;;4996279;28;20128;-77
2023/03/08 03:20:22;;;;;;;9.93;4.90;;;2.70;79.40;;;;;;4996872;28;20058;-77
2023/03/08 03:22:48;;;;;;;9.77;5.13;;;2.70;79.40;;;;;;4998019;28;20117;-76
2023/03/08 03:25:14;;;;;;;10.90;5.65;;;2.70;79.50;;;;;;5008449;28;20022;-76
2023/03/08 03:27:40;;;;;;;13.35;5.22;;;2.80;79.50;;;;;;5004772;28;20031;-77
2023/03/08 03:30:07;;;;;;;7.60;5.22;;;2.80;79.50;;;;;;4995710;28;20113;-76
2023/03/08 03:32:33;;;;;;;10.10;5.80;;;2.80;79.60;;;;;;4996984;28;20022;-76
2023/03/08 03:34:59;;;;;;;7.57;4.00;;;2.70;79.60;;;;;;4994863;28;20026;-76
2023/03/08 03:37:24;;;;;;;8.93;4.43;;;2.70;79.60;;;;;;5002081;28;20493;-76
2023/03/08 03:39:50;;;;;;;7.22;3.85;;;2.70;79.70;;;;;;5007345;28;20034;-76
2023/03/08 03:42:17;;;;;;;7.28;4.18;;;2.70;79.70;;;;;;5015508;28;20403;-76
2023/03/08 03:44:42;;;;;;;9.57;4.88;;;2.70;79.90;;;;;;5014151;28;20056;-77
2023/03/08 03:47:11;;;;;;;9.23;4.45;;;2.70;80.00;;;;;;5016043;28;20391;-77
2023/03/08 03:49:37;;;;;;;10.23;5.97;;;2.60;80.00;;;;;;5014365;28;20033;-77
2023/03/08 03:52:02;;;;;;;10.15;5.50;;;2.60;80.20;;;;;;4996943;28;20031;-77
2023/03/08 03:54:31;;;;;;;8.30;5.00;;;2.70;80.30;;;;;;4995223;28;20507;-79
2023/03/08 03:56:57;;;;;;;7.40;4.03;;;2.70;80.30;;;;;;4995265;28;20033;-77
2023/03/08 03:59:24;;;;;;;8.25;4.05;;;2.70;80.30;;;;;;4996021;28;20033;-76
2023/03/08 04:01:50;;;;;;;5.63;3.75;;;2.70;80.40;;;;;;4999231;28;20130;-79
2023/03/08 04:04:16;;;;;;;7.07;4.18;;;2.70;80.40;;;;;;5014271;28;20378;-79
2023/03/08 04:06:41;;;;;;;6.90;3.90;;;2.70;80.50;;;;;;4995080;28;20030;-77
2023/03/08 04:09:12;;;;;;;7.00;3.78;;;2.70;80.50;;;;;;5005865;28;20036;-77
2023/03/08 04:11:39;;;;;;;7.20;3.30;;;2.70;80.50;;;;;;5015963;28;20041;-78
2023/03/08 04:14:05;;;;;;;6.57;3.20;;;2.70;80.70;;;;;;5029508;28;20074;-77
2023/03/08 04:16:34;;;;;;;7.00;3.80;;;2.70;80.70;;;;;;5014655;28;20487;-78
2023/03/08 04:19:05;;;;;;;8.32;4.60;;;2.80;80.70;;;;;;5017145;28;20038;-76
2023/03/08 04:21:42;;;;;;;7.45;4.00;;;2.80;80.70;;;;;;5027756;28;20041;-77
2023/03/08 04:24:07;;;;;;;6.63;4.00;;;2.80;80.50;;;;;;5027958;28;20102;-78
2023/03/08 04:26:34;;;;;;;8.93;4.93;;;2.90;80.40;;;;;;5006918;28;20354;-80
2023/03/08 04:29:04;;;;;;;5.78;3.67;;;2.90;80.30;;;;;;5005164;28;20018;-77
2023/03/08 04:31:30;;;;;;;6.60;3.13;;;3.00;80.30;;;;;;5029338;23;20041;-72
2023/03/08 04:33:57;;;;;;;6.13;3.10;;;3.00;80.30;;;;;;5022279;28;20124;-72
2023/03/08 04:36:22;;;;;;;6.72;3.65;;;3.00;80.20;;;;;;5016734;28;20276;-72
2023/03/08 04:38:48;;;;;;;6.80;4.00;;;3.00;80.10;;;;;;5013361;28;20029;-74
2023/03/08 04:41:15;;;;;;;7.68;4.30;;;3.10;80.10;;;;;;5001213;28;20042;-72
2023/03/08 04:43:45;;;;;;;7.55;3.70;;;3.10;80.80;;;;;;5010792;28;20030;-73
2023/03/08 04:46:12;;;;;;;6.60;3.58;;;3.10;80.50;;;;;;5016133;28;20034;-72
2023/03/08 04:48:38;;;;;;;5.55;2.50;;;3.20;80.20;;;;;;5013574;28;20029;-73
2023/03/08 04:51:06;;;;;;;5.30;2.97;;;3.20;80.20;;;;;;5015174;28;20026;-73
2023/03/08 04:53:32;;;;;;;5.57;2.67;;;3.20;80.10;;;;;;5014887;28;20521;-72
2023/03/08 04:55:59;;;;;;;5.15;3.20;;;3.20;80.00;;;;;;5014114;28;20030;-73
2023/03/08 04:58:29;;;;;;;4.45;3.00;;;3.20;80.00;;;;;;5023659;28;20029;-72
2023/03/08 05:00:55;;;;;;;4.88;2.75;;;3.20;80.00;;;;;;5010615;28;20153;-72
2023/03/08 05:03:21;;;;;;;6.10;2.95;;;3.20;80.10;;;;;;5006368;28;20033;-73
2023/03/08 05:05:53;;;;;;;6.05;3.20;;;3.20;80.10;;;;;;5013286;28;20089;-73
2023/03/08 05:08:19;;;;;;;7.55;4.32;;;3.20;80.10;;;;;;5013844;28;20041;-73
2023/03/08 05:10:59;;;;;;;7.15;3.85;;;3.20;80.10;;;;;;5014073;28;20037;-73
2023/03/08 05:13:27;;;;;;;5.93;3.60;;;3.20;80.20;;;;;;5014707;28;20026;-74
2023/03/08 05:15:53;;;;;;;5.43;3.70;;;3.20;80.30;;;;;;5004712;28;20026;-72
2023/03/08 05:18:19;;;;;;;6.75;3.63;;;3.20;80.30;;;;;;4996860;28;20056;-72
2023/03/08 05:20:55;;;;;;;6.72;3.70;;;3.20;80.20;;;;;;5008123;28;20503;-72
2023/03/08 05:23:22;;;;;;;5.80;3.45;;;3.20;80.40;;;;;;5014935;28;20382;-72
2023/03/08 05:25:51;;;;;;;6.38;3.53;;;3.20;80.60;;;;;;5016003;28;20022;-72
2023/03/08 05:28:16;;;;;;;5.28;3.38;;;3.10;80.70;;;;;;5014157;28;20030;-72
2023/03/08 05:30:42;;;;;;;6.15;2.97;;;3.10;80.80;;;;;;5006186;28;20080;-73
2023/03/08 05:33:08;;;;;;;6.03;2.70;;;3.10;81.00;;;;;;5013751;28;20022;-72
2023/03/08 05:35:33;;;;;;;6.63;3.15;;;3.10;81.10;;;;;;5015808;28;20029;-73
2023/03/08 05:37:59;;;;;;;5.10;2.60;;;3.10;81.20;;;;;;5015208;28;20029;-72
2023/03/08 05:40:25;;;;;;;5.07;3.22;;;3.10;81.30;;;;;;5003816;28;20026;-72
2023/03/08 05:42:50;;;;;;;5.90;3.10;;;3.10;81.30;;;;;;4995499;28;20121;-72
2023/03/08 05:45:16;;;;;;;5.57;3.40;;;3.20;81.50;;;;;;4994994;28;20037;-72
2023/03/08 05:47:42;;;;;;;6.53;3.55;;;3.20;81.60;;;;;;4995187;28;20030;-72
2023/03/08 05:50:08;;;;;;;5.72;3.13;;;3.20;81.70;;;;;;4995430;28;20080;-72
2023/03/08 05:52:34;;;;;;;7.07;3.58;;;3.20;81.80;;;;;;4994720;28;20022;-72
2023/03/08 05:54:59;;;;;;;6.10;2.83;;;3.20;81.80;;;;;;4994850;28;20447;-73
2023/03/08 05:57:26;;;;;;;7.38;3.55;;;3.30;81.80;;;;;;4993429;28;20027;-73
2023/03/08 05:59:52;;;;;;;6.45;3.50;;;3.30;81.90;;;;;;4993654;28;20030;-73
2023/03/08 06:02:17;;;;;;;5.97;3.35;;;3.30;82.00;;;;;;5006507;28;20108;-72
2023/03/08 06:04:43;;;;;;;6.53;3.80;;;3.30;82.20;;;;;;5014151;28;20455;-73
2023/03/08 06:07:09;;;;;;;5.47;3.45;;;3.30;82.50;;;;;;5013941;28;20022;-73
2023/03/08 06:09:34;;;;;;;5.78;3.33;;;3.30;82.60;;;;;;5014382;28;20029;-72
2023/03/08 06:12:00;;;;;;;5.80;3.05;;;3.40;82.70;;;;;;4997953;28;20027;-73
2023/03/08 06:14:25;;;;;;;6.45;3.58;;;3.50;82.60;;;;;;4997736;28;20081;-73
2023/03/08 06:16:51;;;;;;;6.82;3.70;;;3.50;83.10;;;;;;4996548;28;20018;-73
2023/03/08 06:19:17;;;;;;;5.03;3.03;;;3.50;82.40;;;;;;4997830;28;20030;-72
2023/03/08 06:21:43;;;;;;;6.00;3.28;;;3.50;82.30;;;;;;4997667;28;20030;-73
2023/03/08 06:24:08;;;;;;;6.50;3.25;;;3.60;82.50;;;;;;4997079;28;20040;-74
2023/03/08 06:26:34;;;;;;;5.00;2.72;;;3.60;82.40;;;;;;4997502;28;20026;-74
2023/03/08 06:29:00;;;;;;;7.35;3.53;;;3.60;82.20;;;;;;4999184;28;20030;-72
2023/03/08 06:31:25;;;;;;;5.97;3.75;;;3.60;82.30;;;;;;5003940;28;20030;-73
2023/03/08 06:33:51;;;;;;;6.35;3.38;;;3.70;83.10;;;;;;5008575;28;20029;-72
2023/03/08 06:36:18;;;;;;;4.53;2.90;;;3.80;82.40;;;;;;5016907;28;20026;-75
2023/03/08 06:38:44;;;;;;;7.78;3.97;;;3.90;82.20;;;;;;5016411;28;20084;-74
2023/03/08 06:41:12;;;;;;;8.05;5.10;;;4.10;82.00;;;;;;5016489;28;20100;-74
2023/03/08 06:43:38;;;;;;;6.18;3.90;;;4.20;81.80;;;;;;5016598;28;20096;-74
2023/03/08 06:46:05;;;;;;;9.50;4.72;;;4.40;81.30;;;;;;5003555;28;20035;-73
2023/03/08 06:48:32;;;;;;;6.95;4.30;;;4.40;80.80;;;;;;5013029;28;20026;-74
2023/03/08 06:50:58;;;;;;;6.22;3.72;;;4.50;80.60;;;;;;5016545;28;20104;-74
2023/03/08 06:53:23;;;;;;;6.90;3.58;;;4.50;80.70;;;;;;5019554;28;20060;-74
2023/03/08 06:55:49;;;;;;;5.63;3.17;;;4.60;80.70;;;;;;4999168;28;20426;-72
2023/03/08 06:58:15;;;;;;;4.07;2.72;;;4.60;80.50;;;;;;4999629;28;20018;-74
2023/03/08 07:00:40;;;;;;;4.72;3.05;;;4.70;80.50;;;;;;4999899;28;20059;-74
2023/03/08 07:03:06;;;;;;;4.93;3.47;;;4.70;80.20;;;;;;5014229;28;20097;-73
2023/03/08 07:05:32;;;;;;;3.75;2.47;;;4.70;80.20;;;;;;5002346;28;20073;-73
2023/03/08 07:07:58;;;;;;;3.88;2.63;;;4.80;80.70;;;;;;5004281;28;20242;-73
2023/03/08 07:10:24;;;;;;;3.75;2.22;;;4.80;80.00;;;;;;4996450;28;20022;-73
2023/03/08 07:12:50;;;;;;;4.28;2.95;;;4.90;80.50;;;;;;4995971;28;20018;-73
2023/03/08 07:15:19;;;;;;;4.72;3.28;;;4.90;79.60;;;;;;4996256;28;20081;-73
2023/03/08 07:17:46;;;;;;;5.32;3.10;;;5.00;79.60;;;;;;4998080;28;20018;-74
2023/03/08 07:20:14;;;;;;;4.47;2.75;;;5.00;79.60;;;;;;4995664;28;20057;-75
2023/03/08 07:22:40;;;;;;;4.88;3.20;;;5.00;79.60;;;;;;4996078;28;20157;-73
2023/03/08 07:25:07;;;;;;;3.85;2.60;;;5.10;79.50;;;;;;4995579;28;20030;-73
2023/03/08 07:27:33;;;;;;;5.53;3.10;;;5.10;79.30;;;;;;4997404;28;20069;-74
2023/03/08 07:29:59;;;;;;;6.63;4.07;;;5.10;79.10;;;;;;4995275;28;20104;-75
2023/03/08 07:32:27;;;;;;;4.78;3.13;;;5.20;78.80;;;;;;5008114;28;20022;-73
2023/03/08 07:34:56;;;;;;;5.28;3.60;;;5.20;79.00;;;;;;5012107;28;20140;-74
2023/03/08 07:37:22;;;;;;;3.78;2.78;;;5.20;78.90;;;;;;4995548;28;20368;-74
2023/03/08 07:39:48;;;;;;;5.22;3.08;;;5.20;78.80;;;;;;4995579;28;20465;-73
2023/03/08 07:42:14;;;;;;;6.15;3.38;;;5.30;78.70;;;;;;4998767;28;20545;-73
2023/03/08 07:44:39;;;;;;;5.97;3.63;;;5.30;78.40;;;;;;4996121;28;20049;-72
2023/03/08 07:47:05;;;;;;;4.95;3.30;;;5.30;78.40;;;;;;4994514;28;20562;-73
2023/03/08 07:49:31;;;;;;;7.97;4.55;;;5.40;78.20;;;;;;4996713;28;20451;-73
2023/03/08 07:51:57;;;;;;;6.72;3.80;;;5.50;78.10;;;;;;5006847;28;20033;-73
2023/03/08 07:54:23;;;;;;;6.75;3.95;;;5.60;77.80;;;;;;4994510;28;20030;-73
2023/03/08 07:56:51;;;;;;;4.60;2.75;;;5.80;77.60;;;;;;4996099;28;20050;-74
2023/03/08 07:59:17;;;;;;;4.68;2.63;;;6.00;77.30;;;;;;4996308;28;20545;-72
2023/03/08 08:01:42;;;;;;;5.10;2.70;;;6.20;76.60;;;;;;5003802;28;20108;-74
2023/03/08 08:04:08;;;;;;;3.70;2.65;;;6.30;75.80;;;;;;5007964;28;20159;-73
2023/03/08 08:06:35;;;;;;;5.95;3.67;;;6.40;75.40;;;;;;5004889;28;20027;-73
2023/03/08 08:09:01;;;;;;;5.80;3.47;;;6.50;75.20;;;;;;5003318;28;20041;-74
2023/03/08 08:11:27;;;;;;;5.15;3.22;;;6.60;75.10;;;;;;4994819;28;20474;-73
2023/03/08 08:13:52;;;;;;;5.70;3.67;;;6.80;74.30;;;;;;5016354;28;20048;-71
2023/03/08 08:16:18;;;;;;;5.70;3.45;;;7.00;73.70;;;;;;5015541;28;20500;-74
2023/03/08 08:18:44;;;;;;;4.97;3.10;;;7.30;73.20;;;;;;5017207;28;20025;-74
2023/03/08 08:21:12;;;;;;;6.72;3.30;;;7.40;72.70;;;;;;5016361;28;20563;-73
2023/03/08 08:23:40;;;;;;;6.45;3.70;;;7.60;72.00;;;;;;5016433;28;20026;-74
2023/03/08 08:26:08;;;;;;;5.80;3.95;;;7.90;71.20;;;;;;5014899;28;20092;-74
2023/03/08 08:28:35;;;;;;;7.00;3.80;;;8.10;70.50;;;;;;5008231;28;20088;-74
2023/03/08 08:31:04;;;;;;;6.63;4.38;;;8.20;69.20;;;;;;4995784;28;20064;-73
2023/03/08 08:33:31;;;;;;;7.10;4.55;;;8.30;69.50;;;;;;5004046;28;20034;-73
2023/03/08 08:35:57;;;;;;;8.18;4.82;;;8.30;68.60;;;;;;4995441;28;20102;-73
2023/03/08 08:38:24;;;;;;;10.07;5.40;;;8.20;68.10;;;;;;4994961;28;20080;-73
2023/03/08 08:40:50;;;;;;;8.65;5.28;;;8.10;68.30;;;;;;4994611;28;20034;-75
2023/03/08 08:43:16;;;;;;;9.32;5.82;;;8.00;68.30;;;;;;4995487;28;20406;-72
2023/03/08 08:45:47;;;;;;;8.15;5.68;;;7.90;68.10;;;;;;4994160;28;20034;-73
2023/03/08 08:48:14;;;;;;;8.05;5.15;;;7.80;68.40;;;;;;4994007;28;20044;-76
2023/03/08 08:50:41;;;;;;;10.30;5.20;;;7.70;68.40;;;;;;5000633;28;20105;-74
2023/03/08 08:53:08;;;;;;;9.45;5.18;;;7.60;68.50;;;;;;4999686;28;20030;-74
2023/03/08 08:55:34;;;;;;;7.38;4.43;;;7.60;68.60;;;;;;5005398;28;20041;-74
2023/03/08 08:58:01;;;;;;;6.88;4.00;;;7.70;68.60;;;;;;5002017;28;20026;-75
2023/03/08 09:00:28;;;;;;;7.60;4.30;;;7.80;68.60;;;;;;4995152;28;20101;-75
2023/03/08 09:02:53;;;;;;;8.70;5.65;;;7.90;68.10;;;;;;5009141;28;20034;-76
2023/03/08 09:05:19;;;;;;;7.55;4.82;;;8.00;67.70;;;;;;5014800;28;20029;-75
2023/03/08 09:07:45;;;;;;;7.65;4.82;;;8.10;67.60;;;;;;5004410;28;20030;-74
2023/03/08 09:10:11;;;;;;;7.43;4.55;;;8.10;67.30;;;;;;4995559;28;20026;-75
2023/03/08 09:12:37;;;;;;;7.55;5.60;;;8.10;67.40;;;;;;4994769;28;20026;-74
2023/03/08 09:15:05;;;;;;;9.40;5.32;;;8.20;67.10;;;;;;4994498;28;20027;-74
2023/03/08 09:17:32;;;;;;;8.18;4.28;;;8.20;66.80;;;;;;4995115;28;20212;-74
2023/03/08 09:19:58;;;;;;;7.10;4.30;;;8.30;66.70;;;;;;4995006;28;20351;-74
2023/03/08 09:22:26;;;;;;;7.47;4.88;;;8.40;66.50;;;;;;4995739;28;20022;-75
2023/03/08 09:24:51;;;;;;;7.22;4.70;;;8.40;66.20;;;;;;4995934;28;20045;-75
2023/03/08 09:27:17;;;;;;;10.35;5.60;;;8.40;66.70;;;;;;4995831;28;20475;-74
2023/03/08 09:29:43;;;;;;;11.02;6.22;;;8.40;65.90;;;;;;4994808;28;20038;-75
2023/03/08 09:32:09;;;;;;;10.10;5.35;;;8.40;65.70;;;;;;5002742;28;20109;-73
2023/03/08 09:34:34;;;;;;;10.90;6.47;;;8.30;65.90;;;;;;5009484;28;20032;-73
2023/03/08 09:37:00;;;;;;;9.73;6.05;;;8.30;66.20;;;;;;5015061;28;20046;-75
2023/03/08 09:39:26;;;;;;;9.20;6.00;;;8.30;66.40;;;;;;5013106;28;20061;-74
2023/03/08 09:42:01;;;;;;;8.52;5.32;;;8.30;66.70;;;;;;5015198;28;20029;-74
2023/03/08 09:44:33;;;;;;;8.65;5.28;;;8.50;66.70;;;;;;5018170;28;20030;-75
2023/03/08 09:47:12;;;;;;;7.72;4.88;;;8.70;66.60;;;;;;5033144;28;20040;-74
2023/03/08 09:49:41;;;;;;;20.65;10.98;;;8.80;66.30;;;;;;5017482;28;20026;-74
2023/03/08 09:52:31;;;;;;;18.52;9.20;;;8.90;65.40;;;;;;5018131;28;20033;-75
2023/03/08 09:54:59;;;;;;;14.45;7.95;;;8.90;65.40;;;;;;5018148;28;20030;-74
2023/03/08 09:57:35;;;;;;;14.95;8.40;;;8.90;65.20;;;;;;5015085;28;20036;-74
2023/03/08 10:00:10;;;;;;;15.32;7.82;;;9.00;65.20;;;;;;4997979;28;20081;-77
2023/03/08 10:03:02;;;;;;;14.45;8.65;;;9.00;65.40;;;;;;5006642;28;20081;-74
2023/03/08 10:06:14;;;;;;;12.60;7.30;;;9.10;65.20;;;;;;5010076;28;20033;-74
2023/03/08 10:08:52;;;;;;;9.95;6.65;;;9.20;65.10;;;;;;4974605;28;20717;-74
2023/03/08 10:11:36;;;;;;;13.50;7.95;;;9.40;64.80;;;;;;4965417;28;20484;-75
2023/03/08 10:14:24;;;;;;;14.93;9.00;;;9.50;64.10;;;;;;4995302;28;20045;-76
2023/03/08 10:16:56;;;;;;;11.18;7.30;;;9.20;64.30;;;;;;5012941;28;20022;-73
2023/03/08 10:19:43;;;;;;;12.23;7.47;;;9.00;64.90;;;;;;4978472;28;20034;-73
2023/03/08 10:22:24;;;;;;;10.27;6.72;;;8.70;65.10;;;;;;4988521;28;20046;-75
2023/03/08 10:25:19;;;;;;;9.98;6.10;;;8.40;65.90;;;;;;4997845;28;20022;-74
2023/03/08 10:27:47;;;;;;;11.32;6.03;;;8.30;66.60;;;;;;4995538;28;20061;-76
2023/03/08 10:30:18;;;;;;;9.10;5.03;;;8.30;66.90;;;;;;4998872;28;20030;-74
2023/03/08 10:32:53;;;;;;;6.75;4.60;;;8.50;66.90;;;;;;5008301;28;20034;-75
2023/03/08 10:35:30;;;;;;;6.38;4.15;;;8.70;66.80;;;;;;5015993;28;20026;-73
2023/03/08 10:37:56;;;;;;;3.50;2.90;;;8.90;66.50;;;;;;4998503;28;20109;-76
2023/03/08 10:40:21;;;;;;;4.32;2.88;;;9.00;66.00;;;;;;4999063;28;20148;-75
2023/03/08 10:43:04;;;;;;;3.83;3.10;;;9.00;65.80;;;;;;4998641;28;20019;-75
2023/03/08 10:45:30;;;;;;;3.25;2.35;;;9.00;65.70;;;;;;4998453;28;20017;-73
2023/03/08 10:48:04;;;;;;;4.80;2.90;;;9.00;65.90;;;;;;4999314;28;20031;-74
2023/03/08 10:50:35;;;;;;;3.30;2.45;;;9.00;65.60;;;;;;4999500;28;20185;-74
2023/03/08 10:53:18;;;;;;;3.35;2.40;;;9.00;65.70;;;;;;4997505;28;20026;-75
2023/03/08 10:55:50;;;;;;;4.55;3.05;;;9.00;65.90;;;;;;5000198;28;20022;-73
2023/03/08 10:58:26;;;;;;;2.92;2.50;;;9.00;65.90;;;;;;5000615;28;20026;-75
2023/03/08 11:00:54;;;;;;;2.85;2.47;;;9.10;66.10;;;;;;5001937;28;20419;-75
2023/03/08 11:03:22;;;;;;;4.38;2.83;;;9.00;66.30;;;;;;5010934;28;20022;-74
2023/03/08 11:06:12;;;;;;;3.70;2.40;;;9.00;66.80;;;;;;5018434;28;20022;-74
2023/03/08 11:08:51;;;;;;;2.53;2.28;;;9.10;67.30;;;;;;5022536;28;20026;-75
2023/03/08 11:11:17;;;;;;;3.03;2.42;;;9.10;67.80;;;;;;5008155;28;20007;-73
2023/03/08 11:13:45;;;;;;;3.45;2.50;;;9.20;68.10;;;;;;5003754;28;20118;-74
2023/03/08 11:16:40;;;;;;;5.07;2.92;;;9.10;68.40;;;;;;5002334;28;20041;-73
2023/03/08 11:19:11;;;;;;;8.63;4.97;;;9.00;68.70;;;;;;5012262;28;20034;-74
2023/03/08 11:22:11;;;;;;;9.93;5.78;;;8.80;69.20;;;;;;5025354;28;20038;-74
2023/03/08 11:24:57;;;;;;;8.38;4.90;;;8.70;70.10;;;;;;5012389;28;20121;-75
2023/03/08 11:27:35;;;;;;;9.25;5.00;;;8.60;71.20;;;;;;5003597;28;20046;-74
2023/03/08 11:30:06;;;;;;;9.07;4.55;;;8.50;72.40;;;;;;4998393;28;20471;-75
2023/03/08 11:32:53;;;;;;;8.18;4.78;;;8.50;74.20;;;;;;4997865;28;20038;-74
2023/03/08 11:35:21;;;;;;;6.38;3.97;;;8.50;75.50;;;;;;4994873;28;20030;-74
2023/03/08 11:37:55;;;;;;;6.30;3.80;;;8.60;76.30;;;;;;4998252;28;20019;-74
2023/03/08 11:40:27;;;;;;;5.97;3.15;;;8.60;76.90;;;;;;4994491;28;20037;-74
2023/03/08 11:42:59;;;;;;;3.72;2.45;;;8.60;77.30;;;;;;4998210;28;20050;-74
2023/03/08 11:45:52;;;;;;;5.43;2.53;;;8.70;77.70;;;;;;4998671;28;20026;-74
2023/03/08 11:48:23;;;;;;;4.13;2.83;;;8.80;77.40;;;;;;4995650;28;20122;-74
2023/03/08 11:51:06;;;;;;;5.13;2.63;;;8.80;77.30;;;;;;4997835;28;20022;-74
2023/03/08 11:53:37;;;;;;;2.08;1.83;;;8.90;77.20;;;;;;5014024;28;20026;-74
2023/03/08 11:56:08;;;;;;;2.58;2.03;;;8.90;77.10;;;;;;4997275;28;20551;-74
2023/03/08 11:58:54;;;;;;;5.55;3.03;;;9.00;77.00;;;;;;4997534;28;20037;-77
2023/03/08 12:01:27;;;;;;;4.55;2.63;;;9.00;76.80;;;;;;5002897;28;20030;-74
2023/03/08 12:03:56;;;;;;;3.60;2.42;;;9.10;76.80;;;;;;5009938;28;20030;-74
2023/03/08 12:06:28;;;;;;;5.40;2.55;;;9.20;76.80;;;;;;5015662;28;20080;-75
2023/03/08 12:09:03;;;;;;;4.00;2.90;;;9.30;76.50;;;;;;5008415;28;20061;-75
2023/03/08 12:11:45;;;;;;;3.88;2.55;;;9.40;76.30;;;;;;4996947;28;20752;-74
2023/03/08 12:14:17;;;;;;;4.63;2.78;;;9.40;76.00;;;;;;4994943;28;20117;-74
2023/03/08 12:16:59;;;;;;;3.53;2.55;;;9.40;75.70;;;;;;4998562;28;20034;-73
2023/03/08 12:19:36;;;;;;;3.17;1.80;;;9.50;75.40;;;;;;4998760;28;20471;-75
2023/03/08 12:22:38;;;;;;;2.30;1.85;;;9.50;75.40;;;;;;4997898;28;20265;-75
2023/03/08 12:25:26;;;;;;;3.25;1.70;;;9.80;75.20;;;;;;4998225;28;20026;-74
2023/03/08 12:28:00;;;;;;;2.50;2.03;;;10.00;74.50;;;;;;4997118;28;20026;-75
2023/03/08 12:30:38;;;;;;;4.82;2.47;;;10.10;73.70;;;;;;4996826;28;20125;-74
2023/03/08 12:33:08;;;;;;;4.15;3.05;;;10.20;73.50;;;;;;4998759;28;20491;-74
2023/03/08 12:35:35;;;;;;;5.45;3.25;;;10.30;73.30;;;;;;4996206;28;20030;-74
2023/03/08 12:38:03;;;;;;;4.88;2.85;;;10.30;72.90;;;;;;4996679;28;20030;-75
2023/03/08 12:40:44;;;;;;;5.40;3.10;;;10.50;72.70;;;;;;5008561;28;20111;-74
2023/03/08 12:43:22;;;;;;;5.85;2.90;;;10.60;72.30;;;;;;4996138;28;20045;-74
2023/03/08 12:46:07;;;;;;;5.82;3.47;;;10.70;71.80;;;;;;4995327;28;20387;-73
2023/03/08 12:48:36;;;;;;;6.10;4.00;;;10.70;71.60;;;;;;4991856;28;20128;-74
2023/03/08 12:51:25;;;;;;;6.45;3.47;;;10.80;71.10;;;;;;4988117;28;20050;-74
2023/03/08 12:53:51;;;;;;;5.20;2.80;;;10.80;71.10;;;;;;4984659;28;20119;-75
2023/03/08 12:56:25;;;;;;;2.92;2.40;;;10.90;71.20;;;;;;4995679;28;20463;-75
2023/03/08 12:58:57;;;;;;;7.82;3.65;;;11.00;71.20;;;;;;4999296;28;20086;-77
2023/03/08 13:01:35;;;;;;;4.38;2.95;;;11.00;71.10;;;;;;4995319;28;20030;-76
2023/03/08 13:04:05;;;;;;;4.93;3.13;;;11.00;71.20;;;;;;5003541;28;20042;-77
2023/03/08 13:06:55;;;;;;;5.20;2.95;;;10.90;72.10;;;;;;4998756;28;20029;-75